Time;durP1;ratioP1;P1;durP2;ratioP2;P2;SDS_P1;SDS_P2;PMS_P1;PMS_P2;Temp;Humidity;BMP_temperature;BMP_pressure;BME280_temperature;BME280_humidity;BME280_pressure;Samples;Min_cycle;Max_cycle;Signal;HPM_P1;HPM_P2
2022/08/27 00:01:15;;;;;;;8.17;3.43;;;16.20;99.90;;;;;;5095178;28;20048;-70
2022/08/27 00:03:43;;;;;;;9.77;3.60;;;16.20;99.90;;;;;;5095467;28;20043;-70
2022/08/27 00:06:12;;;;;;;7.57;3.30;;;16.20;99.90;;;;;;5094935;28;20048;-70
2022/08/27 00:08:39;;;;;;;9.13;4.00;;;16.20;99.90;;;;;;5095210;28;20067;-70
2022/08/27 00:11:05;;;;;;;6.80;3.20;;;16.20;99.90;;;;;;5095154;28;20055;-70
2022/08/27 00:13:31;;;;;;;12.80;3.87;;;16.20;99.90;;;;;;5094575;28;20071;-70
2022/08/27 00:15:57;;;;;;;8.40;3.70;;;16.20;99.90;;;;;;5095192;28;20055;-70
2022/08/27 00:18:23;;;;;;;8.93;3.77;;;16.20;99.90;;;;;;5094839;28;20185;-70
2022/08/27 00:20:49;;;;;;;9.33;3.30;;;16.20;99.90;;;;;;5095075;28;20094;-70
2022/08/27 00:23:15;;;;;;;8.27;3.70;;;16.10;99.90;;;;;;5094159;28;20055;-70
2022/08/27 00:25:41;;;;;;;8.77;3.87;;;16.10;99.90;;;;;;5094946;28;20036;-70
2022/08/27 00:28:07;;;;;;;5.77;3.27;;;16.10;99.90;;;;;;5093464;28;20052;-70
2022/08/27 00:30:33;;;;;;;8.33;3.73;;;;;;;;;;5094647;28;20181;-70
2022/08/27 00:32:59;;;;;;;8.83;3.50;;;16.00;99.90;;;;;;5094853;28;20044;-70
2022/08/27 00:35:25;;;;;;;7.03;3.43;;;15.90;99.90;;;;;;5094334;28;20040;-70
2022/08/27 00:37:51;;;;;;;8.83;3.90;;;15.80;99.90;;;;;;5093131;28;20488;-70
2022/08/27 00:40:19;;;;;;;9.73;4.13;;;15.80;99.90;;;;;;5093082;28;20059;-70
2022/08/27 00:42:46;;;;;;;7.30;3.90;;;15.80;99.90;;;;;;5094425;28;20430;-70
2022/08/27 00:45:19;;;;;;;8.13;4.00;;;15.80;99.90;;;;;;5093998;28;20570;-70
2022/08/27 00:47:53;;;;;;;10.67;3.90;;;15.80;99.90;;;;;;5094431;28;20043;-70
2022/08/27 00:50:29;;;;;;;10.07;4.15;;;15.80;99.90;;;;;;5094169;28;20044;-70
2022/08/27 00:52:58;;;;;;;8.30;4.20;;;15.80;99.90;;;;;;5094393;28;20434;-70
2022/08/27 00:55:29;;;;;;;7.70;4.33;;;15.80;99.90;;;;;;5094096;28;20104;-70
2022/08/27 00:58:11;;;;;;;7.90;4.30;;;15.80;99.90;;;;;;5094379;28;20044;-70
2022/08/27 01:00:37;;;;;;;7.70;4.20;;;15.80;99.90;;;;;;5092720;28;20468;-70
2022/08/27 01:03:03;;;;;;;8.80;4.23;;;15.80;99.90;;;;;;5094219;28;20083;-70
2022/08/27 01:05:30;;;;;;;8.10;3.83;;;15.80;99.90;;;;;;5093773;28;20043;-70
2022/08/27 01:08:05;;;;;;;7.70;3.67;;;15.80;99.90;;;;;;5094294;28;20102;-70
2022/08/27 01:10:31;;;;;;;9.27;4.73;;;15.80;99.90;;;;;;5093968;28;20047;-70
2022/08/27 01:12:57;;;;;;;9.27;4.70;;;15.80;99.90;;;;;;5093950;28;20556;-70
2022/08/27 01:15:25;;;;;;;8.17;4.07;;;15.90;99.90;;;;;;5093673;28;20048;-70
2022/08/27 01:17:52;;;;;;;9.00;4.57;;;15.90;99.90;;;;;;5093862;28;20052;-70
2022/08/27 01:20:27;;;;;;;10.83;3.97;;;16.00;99.90;;;;;;5093519;28;20104;-71
2022/08/27 01:23:12;;;;;;;9.90;4.50;;;15.90;99.90;;;;;;5093959;28;20055;-70
2022/08/27 01:25:43;;;;;;;7.05;4.00;;;16.00;99.90;;;;;;5093549;28;20040;-70
2022/08/27 01:28:11;;;;;;;8.77;4.13;;;16.00;99.90;;;;;;5093744;28;20052;-70
2022/08/27 01:30:38;;;;;;;9.47;4.90;;;15.90;99.90;;;;;;5093406;28;20063;-70
2022/08/27 01:33:13;;;;;;;10.57;4.23;;;15.90;99.90;;;;;;5093722;28;20104;-70
2022/08/27 01:35:44;;;;;;;8.18;4.57;;;15.90;99.90;;;;;;5091337;28;20377;-70
2022/08/27 01:38:10;;;;;;;8.57;4.73;;;15.90;99.90;;;;;;5093692;28;20120;-70
2022/08/27 01:40:37;;;;;;;7.87;4.57;;;15.80;99.90;;;;;;5091962;28;20044;-70
2022/08/27 01:43:03;;;;;;;7.40;4.47;;;15.80;99.90;;;;;;5093353;28;20131;-70
2022/08/27 01:45:35;;;;;;;6.73;4.07;;;15.80;99.90;;;;;;5093194;28;20052;-70
2022/08/27 01:48:02;;;;;;;8.97;5.13;;;15.70;99.90;;;;;;5093402;28;20051;-70
2022/08/27 01:50:34;;;;;;;10.90;5.33;;;15.70;99.90;;;;;;5093053;28;20044;-70
2022/08/27 01:53:05;;;;;;;13.03;5.20;;;15.70;99.90;;;;;;5093443;28;20403;-70
2022/08/27 01:55:31;;;;;;;7.87;4.40;;;15.70;99.90;;;;;;5092807;28;20496;-70
2022/08/27 01:57:57;;;;;;;10.50;4.50;;;15.70;99.90;;;;;;5093327;28;20343;-70
2022/08/27 02:00:27;;;;;;;10.70;4.67;;;15.70;99.90;;;;;;5092981;28;20040;-70
2022/08/27 02:02:54;;;;;;;7.63;4.73;;;15.60;99.90;;;;;;5092520;28;20135;-70
2022/08/27 02:05:21;;;;;;;8.73;4.33;;;15.60;99.90;;;;;;5092862;28;20052;-70
2022/08/27 02:07:47;;;;;;;8.27;4.50;;;15.60;99.90;;;;;;5092072;28;20415;-70
2022/08/27 02:10:18;;;;;;;7.13;4.23;;;15.50;99.90;;;;;;5092911;28;20124;-70
2022/08/27 02:12:44;;;;;;;8.33;4.80;;;15.60;99.90;;;;;;5092974;28;20482;-70
2022/08/27 02:15:10;;;;;;;9.70;4.33;;;15.50;99.90;;;;;;5091388;28;20055;-70
2022/08/27 02:17:37;;;;;;;8.80;4.87;;;15.50;99.90;;;;;;5092747;28;20124;-70
2022/08/27 02:20:05;;;;;;;8.53;4.27;;;15.50;99.90;;;;;;5092993;28;20372;-70
2022/08/27 02:22:31;;;;;;;9.97;4.57;;;15.50;99.90;;;;;;5092631;28;20047;-70
2022/08/27 02:24:57;;;;;;;7.37;4.57;;;15.50;99.90;;;;;;5091726;28;20383;-70
2022/08/27 02:27:23;;;;;;;6.50;4.53;;;15.40;99.90;;;;;;5092697;28;20040;-70
2022/08/27 02:29:50;;;;;;;9.27;4.70;;;15.40;99.90;;;;;;5092912;28;20087;-70
2022/08/27 02:32:16;;;;;;;8.53;4.27;;;15.40;99.90;;;;;;5092765;28;20059;-70
2022/08/27 02:34:42;;;;;;;9.50;4.80;;;15.40;99.90;;;;;;5092515;28;20669;-70
2022/08/27 02:37:08;;;;;;;9.97;5.73;;;15.40;99.90;;;;;;5092662;28;20281;-70
2022/08/27 02:39:34;;;;;;;6.47;3.90;;;15.30;99.90;;;;;;5092556;28;20127;-70
2022/08/27 02:41:59;;;;;;;7.43;4.47;;;15.30;99.90;;;;;;5092832;28;20040;-70
2022/08/27 02:44:25;;;;;;;8.77;5.03;;;15.30;99.90;;;;;;5092515;28;20502;-70
2022/08/27 02:46:51;;;;;;;10.33;4.80;;;15.20;99.90;;;;;;5094780;28;20069;-70
2022/08/27 02:49:17;;;;;;;9.53;4.67;;;15.20;99.90;;;;;;5096745;28;20513;-70
2022/08/27 02:51:43;;;;;;;8.23;4.50;;;15.20;99.90;;;;;;5095300;28;20105;-70
2022/08/27 02:54:09;;;;;;;8.63;4.57;;;15.20;99.90;;;;;;5095436;28;20135;-70
2022/08/27 02:56:35;;;;;;;10.87;5.53;;;15.20;99.90;;;;;;5095627;28;20127;-70
2022/08/27 02:59:01;;;;;;;8.50;4.50;;;15.20;99.90;;;;;;5096637;28;20097;-70
2022/08/27 03:01:27;;;;;;;7.47;4.43;;;15.10;99.90;;;;;;5096396;28;20282;-70
2022/08/27 03:03:53;;;;;;;11.97;5.93;;;15.10;99.90;;;;;;5096499;28;20051;-70
2022/08/27 03:06:19;;;;;;;8.30;4.53;;;15.20;99.90;;;;;;5095090;28;20052;-70
2022/08/27 03:08:44;;;;;;;6.90;4.73;;;15.20;99.90;;;;;;5096235;28;20043;-70
2022/08/27 03:11:11;;;;;;;6.80;4.13;;;15.20;99.90;;;;;;5096446;28;20055;-70
2022/08/27 03:13:38;;;;;;;6.10;3.83;;;15.30;99.90;;;;;;5094828;28;20095;-70
2022/08/27 03:16:06;;;;;;;7.17;4.07;;;15.30;99.90;;;;;;5096268;28;20460;-70
2022/08/27 03:18:32;;;;;;;8.50;4.60;;;15.30;99.90;;;;;;5094939;28;20320;-70
2022/08/27 03:20:59;;;;;;;8.80;5.00;;;15.30;99.90;;;;;;5095017;28;20399;-70
2022/08/27 03:23:31;;;;;;;7.57;4.30;;;15.30;99.90;;;;;;5096023;28;20351;-70
2022/08/27 03:25:59;;;;;;;7.17;4.30;;;15.30;99.90;;;;;;5096193;28;20282;-70
2022/08/27 03:28:32;;;;;;;9.43;4.60;;;15.30;99.90;;;;;;5096076;28;20141;-70
2022/08/27 03:31:01;;;;;;;8.07;4.60;;;15.40;99.90;;;;;;5095974;28;20241;-70
2022/08/27 03:33:30;;;;;;;8.47;4.13;;;15.30;99.90;;;;;;5095686;28;20279;-70
2022/08/27 03:35:56;;;;;;;8.87;4.60;;;15.30;99.90;;;;;;5096207;28;20293;-70
2022/08/27 03:38:22;;;;;;;8.93;4.90;;;15.30;99.90;;;;;;5094898;28;20146;-70
2022/08/27 03:40:48;;;;;;;7.70;4.13;;;15.30;99.90;;;;;;5095631;28;20113;-70
2022/08/27 03:43:15;;;;;;;10.93;5.03;;;15.40;99.90;;;;;;5095811;28;20055;-70
2022/08/27 03:45:43;;;;;;;7.20;4.10;;;15.40;99.90;;;;;;5095418;28;20044;-70
2022/08/27 03:48:10;;;;;;;8.07;4.60;;;15.40;99.90;;;;;;5095489;28;20087;-71
2022/08/27 03:50:41;;;;;;;7.27;3.77;;;15.40;99.90;;;;;;5095345;28;20048;-70
2022/08/27 03:53:07;;;;;;;8.53;4.10;;;15.50;99.90;;;;;;5095663;28;20285;-70
2022/08/27 03:55:33;;;;;;;7.63;4.00;;;15.50;99.90;;;;;;5095205;28;20050;-70
2022/08/27 03:57:59;;;;;;;6.13;3.70;;;15.50;99.90;;;;;;5094606;28;20480;-70
2022/08/27 04:00:26;;;;;;;8.67;4.03;;;15.50;99.90;;;;;;5095284;28;20476;-70
2022/08/27 04:02:53;;;;;;;8.30;4.17;;;15.60;99.90;;;;;;5095004;28;20059;-70
2022/08/27 04:05:20;;;;;;;8.40;3.80;;;15.60;99.90;;;;;;5095570;28;20399;-70
2022/08/27 04:07:46;;;;;;;7.77;3.73;;;15.60;99.90;;;;;;5093968;28;20116;-70
2022/08/27 04:10:14;;;;;;;8.33;4.00;;;15.60;99.90;;;;;;5094325;28;20048;-70
2022/08/27 04:12:40;;;;;;;8.47;3.50;;;15.60;99.90;;;;;;5094813;28;20072;-70
2022/08/27 04:15:08;;;;;;;7.70;4.00;;;15.70;99.90;;;;;;5094932;28;20797;-70
2022/08/27 04:17:34;;;;;;;7.00;4.17;;;15.70;99.90;;;;;;5093836;28;20056;-71
2022/08/27 04:19:59;;;;;;;7.83;3.60;;;15.70;99.90;;;;;;5095465;28;20036;-70
2022/08/27 04:22:26;;;;;;;7.30;4.03;;;15.70;99.90;;;;;;5095045;28;20423;-70
2022/08/27 04:24:52;;;;;;;8.97;3.97;;;15.70;99.90;;;;;;5094809;28;20083;-70
2022/08/27 04:27:19;;;;;;;7.33;4.03;;;15.60;99.90;;;;;;5094931;28;20478;-70
2022/08/27 04:29:45;;;;;;;7.57;3.97;;;15.60;99.90;;;;;;5094501;28;20282;-70
2022/08/27 04:32:11;;;;;;;10.23;3.90;;;15.60;99.90;;;;;;5094951;28;20044;-70
2022/08/27 04:34:38;;;;;;;8.40;3.87;;;15.60;99.90;;;;;;5094550;28;20478;-71
2022/08/27 04:37:04;;;;;;;9.77;4.20;;;15.50;99.90;;;;;;5093645;28;20472;-70
2022/08/27 04:39:31;;;;;;;9.17;4.30;;;15.50;99.90;;;;;;5094656;28;20051;-70
2022/08/27 04:41:59;;;;;;;6.93;4.03;;;15.60;99.90;;;;;;5094312;28;20052;-70
2022/08/27 04:44:27;;;;;;;10.53;4.07;;;15.60;99.90;;;;;;5094432;28;20044;-70
2022/08/27 04:47:01;;;;;;;8.57;3.70;;;15.60;99.90;;;;;;5094373;28;20044;-70
2022/08/27 04:49:28;;;;;;;7.38;4.07;;;15.60;99.90;;;;;;5094616;28;20097;-70
2022/08/27 04:51:55;;;;;;;9.60;3.90;;;15.50;99.90;;;;;;5093929;28;20040;-70
2022/08/27 04:54:21;;;;;;;8.03;3.63;;;15.50;99.90;;;;;;5093156;28;20424;-70
2022/08/27 04:56:47;;;;;;;6.07;3.83;;;15.50;99.90;;;;;;5094056;28;20074;-70
2022/08/27 04:59:14;;;;;;;7.00;3.60;;;15.60;99.90;;;;;;5094153;28;20044;-70
2022/08/27 05:01:41;;;;;;;8.40;4.60;;;15.60;99.90;;;;;;5092870;28;20052;-70
2022/08/27 05:04:09;;;;;;;7.13;3.33;;;15.50;99.90;;;;;;5093320;28;20052;-70
2022/08/27 05:06:35;;;;;;;9.00;3.43;;;15.50;99.90;;;;;;5094114;28;20036;-70
2022/08/27 05:09:03;;;;;;;5.60;3.37;;;15.60;99.90;;;;;;5093676;28;20281;-70
2022/08/27 05:11:33;;;;;;;7.80;4.10;;;15.50;99.90;;;;;;5093874;28;20090;-70
2022/08/27 05:14:04;;;;;;;9.10;3.73;;;15.50;99.90;;;;;;5093631;28;20095;-70
2022/08/27 05:16:31;;;;;;;8.07;3.20;;;15.50;99.90;;;;;;5094190;28;20052;-70
2022/08/27 05:18:58;;;;;;;8.13;5.00;;;15.60;99.90;;;;;;5093788;28;20109;-70
2022/08/27 05:21:30;;;;;;;9.07;5.77;;;15.60;99.90;;;;;;5092826;28;20044;-70
2022/08/27 05:23:59;;;;;;;12.50;5.90;;;15.70;99.90;;;;;;5093491;28;20131;-70
2022/08/27 05:26:26;;;;;;;8.73;4.73;;;15.80;99.90;;;;;;5093695;28;20043;-70
2022/08/27 05:28:52;;;;;;;6.53;3.90;;;15.80;99.90;;;;;;5093618;28;20278;-70
2022/08/27 05:31:19;;;;;;;7.43;3.80;;;15.90;99.90;;;;;;5093843;28;20407;-70
2022/08/27 05:33:45;;;;;;;6.43;3.53;;;15.90;99.90;;;;;;5093290;28;20044;-70
2022/08/27 05:36:20;;;;;;;8.30;3.60;;;15.90;99.90;;;;;;5093513;28;20048;-70
2022/08/27 05:38:48;;;;;;;9.15;3.60;;;15.90;99.90;;;;;;5091708;28;20520;-70
2022/08/27 05:41:16;;;;;;;6.97;3.60;;;16.00;99.90;;;;;;5092548;28;20063;-70
2022/08/27 05:43:43;;;;;;;7.63;3.57;;;16.00;99.90;;;;;;5093532;28;20059;-70
2022/08/27 05:46:12;;;;;;;6.83;3.50;;;16.10;99.90;;;;;;5093685;28;20052;-71
2022/08/27 05:48:38;;;;;;;10.67;3.30;;;16.10;99.90;;;;;;5092330;28;20055;-71
2022/08/27 05:51:29;;;;;;;7.57;3.00;;;16.20;99.90;;;;;;5092807;28;20400;-71
2022/08/27 05:54:13;;;;;;;9.17;3.23;;;16.20;99.90;;;;;;5093101;28;20048;-71
2022/08/27 05:56:41;;;;;;;9.15;3.60;;;16.30;99.90;;;;;;5093138;28;20491;-70
2022/08/27 06:01:53;;;;;;;9.57;3.27;;;16.40;99.90;;;;;;5093162;28;20130;-71
2022/08/27 06:04:21;;;;;;;8.43;2.97;;;16.40;99.90;;;;;;5093313;28;20093;-71
2022/08/27 06:06:47;;;;;;;7.53;3.50;;;16.50;99.90;;;;;;5092826;28;20048;-71
2022/08/27 06:09:19;;;;;;;8.47;3.30;;;16.50;99.90;;;;;;5092983;28;20488;-71
2022/08/27 06:11:46;;;;;;;7.40;3.10;;;16.60;99.90;;;;;;5093137;28;20100;-71
2022/08/27 06:14:12;;;;;;;8.60;3.27;;;16.60;99.90;;;;;;5093028;28;20490;-71
2022/08/27 06:16:38;;;;;;;8.93;3.47;;;16.70;99.90;;;;;;5093058;28;20054;-71
2022/08/27 06:19:05;;;;;;;9.40;3.73;;;16.70;99.90;;;;;;5092770;28;20046;-71
2022/08/27 06:21:32;;;;;;;13.80;3.53;;;16.80;99.90;;;;;;5092472;28;20136;-71
2022/08/27 06:23:58;;;;;;;9.23;3.07;;;16.90;99.90;;;;;;5092634;28;20044;-71
2022/08/27 06:26:25;;;;;;;7.40;3.00;;;16.90;99.90;;;;;;5092864;28;20391;-71
2022/08/27 06:28:52;;;;;;;7.90;3.30;;;17.00;99.90;;;;;;5092421;28;20044;-71
2022/08/27 06:31:23;;;;;;;6.73;3.07;;;17.00;99.90;;;;;;5092908;28;20123;-71
2022/08/27 06:33:51;;;;;;;8.87;2.90;;;17.10;99.90;;;;;;5092580;28;20161;-71
2022/08/27 06:36:19;;;;;;;7.27;2.60;;;17.10;99.90;;;;;;5093027;28;20112;-71
2022/08/27 06:38:46;;;;;;;6.77;2.73;;;17.20;99.90;;;;;;5092832;28;20044;-71
2022/08/27 06:41:13;;;;;;;7.50;2.70;;;17.30;99.90;;;;;;5092388;28;20450;-71
2022/08/27 06:43:40;;;;;;;9.50;3.20;;;17.30;99.90;;;;;;5091895;28;20056;-71
2022/08/27 06:46:09;;;;;;;6.10;2.50;;;17.40;99.90;;;;;;5092583;28;20083;-71
2022/08/27 06:48:35;;;;;;;9.47;2.90;;;17.40;99.90;;;;;;5092928;28;20394;-71
2022/08/27 06:51:07;;;;;;;8.73;2.93;;;17.40;99.90;;;;;;5092387;28;20043;-71
2022/08/27 06:53:33;;;;;;;7.73;2.53;;;17.40;99.90;;;;;;5092521;28;20052;-71
2022/08/27 06:55:59;;;;;;;7.40;2.67;;;17.50;99.90;;;;;;5092159;28;20126;-71
2022/08/27 06:58:25;;;;;;;9.00;2.63;;;17.50;99.90;;;;;;5092731;28;20373;-72
2022/08/27 07:00:51;;;;;;;9.83;2.80;;;17.50;99.90;;;;;;5091522;28;20092;-72
2022/08/27 07:03:17;;;;;;;8.90;2.83;;;17.50;99.90;;;;;;5091615;28;20056;-72
2022/08/27 07:05:42;;;;;;;7.73;2.10;;;17.50;99.90;;;;;;5092645;28;20047;-71
2022/08/27 07:08:09;;;;;;;9.43;2.87;;;17.60;99.90;;;;;;5092212;28;20121;-73
2022/08/27 07:10:36;;;;;;;7.47;2.30;;;17.50;99.90;;;;;;5092632;28;20122;-72
2022/08/27 07:13:02;;;;;;;10.43;2.30;;;17.60;99.90;;;;;;5092173;28;20052;-73
2022/08/27 07:15:28;;;;;;;9.63;2.20;;;17.60;99.90;;;;;;5092475;28;20059;-72
2022/08/27 07:17:54;;;;;;;7.37;2.10;;;17.70;99.90;;;;;;5091177;28;20130;-73
2022/08/27 07:20:20;;;;;;;10.53;2.70;;;17.70;99.90;;;;;;5092416;28;20044;-73
2022/08/27 07:22:47;;;;;;;8.70;2.20;;;17.70;99.90;;;;;;5092281;28;20093;-72
2022/08/27 07:25:19;;;;;;;10.00;2.63;;;17.80;99.90;;;;;;5090730;28;20079;-73
2022/08/27 07:27:48;;;;;;;7.47;2.53;;;17.90;99.90;;;;;;5092728;28;20055;-72
2022/08/27 07:30:16;;;;;;;14.00;2.70;;;18.00;99.90;;;;;;5091772;28;20837;-72
2022/08/27 07:32:42;;;;;;;8.73;2.00;;;18.00;99.90;;;;;;5091093;28;20090;-72
2022/08/27 07:35:09;;;;;;;7.80;2.40;;;18.10;99.90;;;;;;5095581;28;20483;-72
2022/08/27 07:37:36;;;;;;;8.20;2.83;;;18.10;99.90;;;;;;5095820;28;20048;-72
2022/08/27 07:40:08;;;;;;;6.90;2.23;;;18.30;99.90;;;;;;5095849;28;20105;-72
2022/08/27 07:45:19;;;;;;;10.98;2.33;;;18.70;99.90;;;;;;5095517;28;20083;-72
2022/08/27 07:47:45;;;;;;;8.67;2.17;;;20.10;99.90;;;;;;5095742;28;20079;-73
2022/08/27 07:50:11;;;;;;;9.83;2.10;;;20.90;99.90;;;;;;5094229;28;20044;-72
2022/08/27 07:52:37;;;;;;;6.17;2.10;;;20.80;99.90;;;;;;5095801;28;20105;-73
2022/08/27 07:55:03;;;;;;;9.13;2.10;;;20.70;99.90;;;;;;5094047;28;20044;-73
2022/08/27 07:57:30;;;;;;;9.53;2.20;;;20.20;99.90;;;;;;5095633;28;20052;-73
2022/08/27 07:59:56;;;;;;;12.07;2.23;;;20.20;99.90;;;;;;5077488;28;20087;-72
2022/08/27 08:02:21;;;;;;;7.00;2.00;;;20.00;99.90;;;;;;5095104;28;20095;-73
2022/08/27 08:04:47;;;;;;;7.10;2.30;;;19.80;99.90;;;;;;5095534;28;20036;-72
2022/08/27 08:07:13;;;;;;;7.63;2.20;;;19.70;99.90;;;;;;5095175;28;20050;-73
2022/08/27 08:09:39;;;;;;;8.73;1.80;;;19.50;99.90;;;;;;5095418;28;20052;-72
2022/08/27 08:12:04;;;;;;;7.63;1.77;;;19.50;99.90;;;;;;5095082;28;20040;-72
2022/08/27 08:14:31;;;;;;;7.23;2.10;;;19.30;99.90;;;;;;5093909;28;20491;-72
2022/08/27 08:17:01;;;;;;;7.77;2.13;;;19.30;99.90;;;;;;5095062;28;20056;-71
2022/08/27 08:19:27;;;;;;;8.50;2.47;;;19.30;99.90;;;;;;5094984;28;20051;-70
2022/08/27 08:21:53;;;;;;;7.67;2.23;;;19.20;99.90;;;;;;5095201;28;20153;-70
2022/08/27 08:24:19;;;;;;;8.80;2.57;;;19.20;99.90;;;;;;5094789;28;20430;-70
2022/08/27 08:26:44;;;;;;;10.13;3.73;;;19.30;99.90;;;;;;5095009;28;20499;-70
2022/08/27 08:29:11;;;;;;;8.13;2.37;;;19.30;99.90;;;;;;5094647;28;20048;-70
2022/08/27 08:31:37;;;;;;;8.33;1.80;;;19.30;99.90;;;;;;5094835;28;20048;-70
2022/08/27 08:34:03;;;;;;;6.63;1.80;;;19.20;99.90;;;;;;5094592;28;20047;-71
2022/08/27 08:36:29;;;;;;;8.53;1.90;;;19.30;99.90;;;;;;5094889;28;20097;-71
2022/08/27 08:38:54;;;;;;;9.00;1.70;;;19.40;99.90;;;;;;5094791;28;20040;-70
2022/08/27 08:41:41;;;;;;;5.93;1.70;;;19.60;99.90;;;;;;5094371;28;20055;-70
2022/08/27 08:44:36;;;;;;;7.00;1.63;;;19.80;99.90;;;;;;5093801;28;20434;-71
2022/08/27 08:47:09;;;;;;;10.88;2.42;;;19.80;99.90;;;;;;5093684;28;20052;-70
2022/08/27 08:49:54;;;;;;;7.27;2.13;;;19.70;99.90;;;;;;5094796;28;20048;-70
2022/08/27 08:52:40;;;;;;;6.15;2.13;;;19.70;99.90;;;;;;5094277;28;20048;-70
2022/08/27 08:55:11;;;;;;;7.87;1.90;;;19.60;99.90;;;;;;5093187;28;20051;-70
2022/08/27 08:57:49;;;;;;;9.27;2.23;;;19.70;99.90;;;;;;5094577;28;20048;-71
2022/08/27 09:00:15;;;;;;;6.63;1.73;;;19.80;99.90;;;;;;5094159;28;20043;-71
2022/08/27 09:02:52;;;;;;;7.17;2.27;;;20.10;99.90;;;;;;5094257;28;20048;-75
2022/08/27 09:05:18;;;;;;;7.20;2.20;;;20.20;99.90;;;;;;5094392;28;20063;-74
2022/08/27 09:07:48;;;;;;;6.27;1.87;;;20.20;99.90;;;;;;5094234;28;20483;-74
2022/08/27 09:10:14;;;;;;;9.47;2.10;;;20.20;99.90;;;;;;5093929;28;20196;-76
2022/08/27 09:12:40;;;;;;;6.47;1.80;;;20.10;99.90;;;;;;5094184;28;20531;-73
2022/08/27 09:15:14;;;;;;;7.63;1.97;;;20.00;99.90;;;;;;5093477;28;20089;-74
2022/08/27 09:17:40;;;;;;;7.20;1.73;;;19.90;99.90;;;;;;5093812;28;20079;-75
2022/08/27 09:20:09;;;;;;;9.17;1.97;;;19.90;99.90;;;;;;5093838;28;20051;-74
2022/08/27 09:23:01;;;;;;;10.07;2.20;;;20.00;99.90;;;;;;5094227;28;20040;-72
2022/08/27 09:25:35;;;;;;;7.60;2.30;;;20.00;99.90;;;;;;5092610;28;20080;-76
2022/08/27 09:29:14;;;;;;;7.03;1.90;;;20.00;99.90;;;;;;5093113;28;20048;-73
2022/08/27 09:30:56;;;;;;;8.20;2.13;;;20.10;99.90;;;;;;5093261;28;20052;-74
2022/08/27 09:33:22;;;;;;;7.67;2.27;;;20.20;99.90;;;;;;5092503;28;20036;-74
2022/08/27 09:35:50;;;;;;;7.50;2.60;;;20.30;99.90;;;;;;5091642;28;20380;-74
2022/08/27 09:38:28;;;;;;;10.57;2.23;;;20.50;99.90;;;;;;5092611;28;20052;-71
2022/08/27 09:40:58;;;;;;;9.67;2.30;;;20.70;99.90;;;;;;5093154;28;20040;-73
2022/08/27 09:43:27;;;;;;;5.53;1.90;;;20.80;99.90;;;;;;5092881;28;20097;-74
2022/08/27 09:45:56;;;;;;;9.37;2.57;;;20.80;99.60;;;;;;5092949;28;20044;-71
2022/08/27 09:48:31;;;;;;;7.67;2.00;;;20.70;99.30;;;;;;5092589;28;20040;-71
2022/08/27 09:51:00;;;;;;;6.67;1.70;;;20.60;99.90;;;;;;5090247;28;20043;-71
2022/08/27 09:53:43;;;;;;;8.27;1.60;;;20.60;99.90;;;;;;5092654;28;20044;-72
2022/08/27 09:56:26;;;;;;;7.13;1.80;;;20.60;99.90;;;;;;5072477;28;20053;-71
2022/08/27 09:59:11;;;;;;;6.30;1.90;;;20.60;99.90;;;;;;5073021;28;20565;-72
2022/08/27 10:02:14;;;;;;;8.43;1.92;;;20.60;99.90;;;;;;5073034;28;20127;-74
2022/08/27 10:04:45;;;;;;;10.33;2.07;;;20.60;99.50;;;;;;5073067;28;20048;-73
2022/08/27 10:07:30;;;;;;;8.30;1.90;;;20.60;99.60;;;;;;5072860;28;20044;-75
2022/08/27 10:10:29;;;;;;;9.82;2.13;;;20.60;98.80;;;;;;5088739;28;20388;-75
2022/08/27 10:13:02;;;;;;;6.97;1.73;;;20.60;99.10;;;;;;5072599;28;20050;-73
2022/08/27 10:15:42;;;;;;;10.47;2.00;;;20.70;99.00;;;;;;5072429;28;20044;-75
2022/08/27 10:18:20;;;;;;;7.03;2.03;;;20.90;98.50;;;;;;5072686;28;20048;-72
2022/08/27 10:20:55;;;;;;;7.80;1.80;;;21.00;98.60;;;;;;5073092;28;20098;-71
2022/08/27 10:23:41;;;;;;;9.38;1.55;;;21.00;98.60;;;;;;5072524;28;20098;-73
2022/08/27 10:26:19;;;;;;;8.37;1.70;;;21.10;98.50;;;;;;5072777;28;20044;-74
2022/08/27 10:29:16;;;;;;;6.83;1.80;;;21.10;97.00;;;;;;5072975;28;20044;-77
2022/08/27 10:32:05;;;;;;;6.77;2.00;;;21.20;97.50;;;;;;5073072;28;20048;-70
2022/08/27 10:34:44;;;;;;;7.27;1.87;;;21.20;97.50;;;;;;5072228;28;20056;-71
2022/08/27 10:37:31;;;;;;;7.83;2.57;;;21.20;97.00;;;;;;5072866;28;20101;-69
2022/08/27 10:40:11;;;;;;;9.43;2.53;;;21.20;98.50;;;;;;5072662;28;20044;-69
2022/08/27 10:42:55;;;;;;;12.17;2.07;;;21.30;98.30;;;;;;5072254;28;20086;-71
2022/08/27 10:45:46;;;;;;;7.50;1.83;;;21.30;98.30;;;;;;5071192;28;20098;-68
2022/08/27 10:48:27;;;;;;;6.50;2.13;;;21.20;97.30;;;;;;5071507;28;20070;-69
2022/08/27 10:50:56;;;;;;;10.10;1.90;;;21.10;97.20;;;;;;5072615;28;20048;-69
2022/08/27 10:53:28;;;;;;;8.07;1.87;;;21.10;97.10;;;;;;5072173;28;20048;-70
2022/08/27 10:56:12;;;;;;;6.10;1.60;;;21.20;96.70;;;;;;5072778;28;20041;-69
2022/08/27 10:58:54;;;;;;;6.53;1.53;;;21.20;95.30;;;;;;5072034;28;20135;-68
2022/08/27 11:01:41;;;;;;;8.27;2.30;;;21.20;95.20;;;;;;5072025;28;20045;-69
2022/08/27 11:04:17;;;;;;;6.20;1.50;;;21.20;95.40;;;;;;5072535;28;20060;-68
2022/08/27 11:06:51;;;;;;;5.53;1.50;;;21.20;95.70;;;;;;5072453;28;20096;-69
2022/08/27 11:09:21;;;;;;;7.72;1.70;;;21.20;96.20;;;;;;5076165;28;20561;-68
2022/08/27 11:11:55;;;;;;;10.47;2.33;;;21.20;96.20;;;;;;5076057;28;20532;-69
2022/08/27 11:14:36;;;;;;;7.63;1.48;;;21.10;96.00;;;;;;5075401;28;20056;-70
2022/08/27 11:17:12;;;;;;;8.17;1.80;;;21.20;95.70;;;;;;5076273;28;20454;-69
2022/08/27 11:19:59;;;;;;;5.70;1.87;;;21.10;95.90;;;;;;5075869;28;20045;-69
2022/08/27 11:22:32;;;;;;;7.87;1.83;;;21.10;96.40;;;;;;5075603;28;20045;-70
2022/08/27 11:25:01;;;;;;;6.13;1.53;;;21.20;94.80;;;;;;5076091;28;20053;-73
2022/08/27 11:27:30;;;;;;;10.40;1.90;;;21.10;95.10;;;;;;5074578;28;20343;-72
2022/08/27 11:30:46;;;;;;;10.03;2.13;;;21.10;95.20;;;;;;5075781;28;20051;-74
2022/08/27 11:33:35;;;;;;;6.60;1.65;;;21.20;95.70;;;;;;5049602;28;20071;-69
2022/08/27 11:36:06;;;;;;;7.10;1.53;;;21.30;94.90;;;;;;5075081;28;20044;-71
2022/08/27 11:38:38;;;;;;;6.67;2.20;;;21.40;94.90;;;;;;5075329;28;20092;-69
2022/08/27 11:41:46;;;;;;;9.03;1.83;;;21.40;95.60;;;;;;5075538;28;20049;-71
2022/08/27 11:44:16;;;;;;;7.83;1.93;;;21.40;96.70;;;;;;5075367;28;20080;-71
2022/08/27 11:46:50;;;;;;;6.63;1.70;;;21.40;96.90;;;;;;5075318;28;20102;-74
2022/08/27 11:49:47;;;;;;;6.30;1.70;;;21.40;96.20;;;;;;5075477;28;20449;-70
2022/08/27 11:52:40;;;;;;;10.00;2.10;;;21.30;96.80;;;;;;5073560;28;20070;-70
2022/08/27 11:55:13;;;;;;;4.33;1.33;;;21.40;96.90;;;;;;5074442;28;20411;-70
2022/08/27 11:57:39;;;;;;;9.87;2.10;;;21.40;96.30;;;;;;5074077;28;20182;-70
2022/08/27 12:00:17;;;;;;;6.13;1.60;;;21.50;96.20;;;;;;5075257;28;20086;-70
2022/08/27 12:02:43;;;;;;;6.53;2.13;;;21.50;95.30;;;;;;5075158;28;20177;-70
2022/08/27 12:05:18;;;;;;;7.53;1.90;;;21.30;95.00;;;;;;5075001;28;20515;-70
2022/08/27 12:07:47;;;;;;;6.07;1.73;;;21.30;95.80;;;;;;5074842;28;20044;-70
2022/08/27 12:10:18;;;;;;;7.47;1.70;;;21.20;95.40;;;;;;5075134;28;20048;-71
2022/08/27 12:12:52;;;;;;;9.07;1.40;;;21.30;95.60;;;;;;5090648;28;20817;-70
2022/08/27 12:15:41;;;;;;;7.65;1.92;;;21.30;95.40;;;;;;5075128;28;20507;-70
2022/08/27 12:18:50;;;;;;;5.40;1.50;;;21.30;95.00;;;;;;5075213;28;20094;-70
2022/08/27 12:21:23;;;;;;;8.63;1.80;;;21.20;93.60;;;;;;5074843;28;20085;-70
2022/08/27 12:23:59;;;;;;;5.77;1.53;;;21.20;95.30;;;;;;5073522;28;20052;-71
2022/08/27 12:26:28;;;;;;;5.37;1.63;;;21.30;95.40;;;;;;5074685;28;20041;-71
2022/08/27 12:29:28;;;;;;;7.00;1.60;;;21.50;94.90;;;;;;5074768;28;20457;-71
2022/08/27 12:32:19;;;;;;;8.23;1.53;;;21.60;94.00;;;;;;5074854;28;20052;-71
2022/08/27 12:35:11;;;;;;;4.33;1.53;;;21.60;93.50;;;;;;5073160;28;20080;-70
2022/08/27 12:37:43;;;;;;;9.77;2.07;;;21.50;92.60;;;;;;5042898;28;20056;-71
2022/08/27 12:40:19;;;;;;;4.70;1.63;;;21.50;93.10;;;;;;5075164;28;20100;-71
2022/08/27 12:42:45;;;;;;;10.97;2.53;;;21.60;91.90;;;;;;5073157;28;20397;-71
2022/08/27 12:45:23;;;;;;;6.53;1.50;;;21.70;92.10;;;;;;5074460;28;20048;-73
2022/08/27 12:47:50;;;;;;;5.83;1.80;;;21.70;92.30;;;;;;5073990;28;20062;-71
2022/08/27 12:50:29;;;;;;;6.10;1.63;;;21.70;90.70;;;;;;5074027;28;20045;-71
2022/08/27 12:53:09;;;;;;;8.27;1.93;;;21.50;89.30;;;;;;5074637;28;20044;-70
2022/08/27 12:56:14;;;;;;;6.30;1.97;;;21.40;90.70;;;;;;5072738;28;20123;-70
2022/08/27 12:59:08;;;;;;;5.15;2.10;;;21.50;91.70;;;;;;5050611;28;20373;-70
2022/08/27 13:02:03;;;;;;;6.50;1.95;;;21.50;91.80;;;;;;5045271;28;20439;-70
2022/08/27 13:04:32;;;;;;;9.18;2.35;;;21.30;92.90;;;;;;5074168;28;20382;-70
2022/08/27 13:06:58;;;;;;;8.67;2.30;;;21.20;93.40;;;;;;5073906;28;20393;-70
2022/08/27 13:09:30;;;;;;;6.00;1.97;;;21.10;94.40;;;;;;5074088;28;20045;-69
2022/08/27 13:11:58;;;;;;;8.60;2.53;;;21.20;95.00;;;;;;5074226;28;20429;-69